sensor_id;sensor_type;location;lat;lon;timestamp;P1;durP1;ratioP1;P2;durP2;ratioP2
65279;SDS011;51878;55.748;48.742;2023-04-15T00:01:04;1.50;;;1.10;;
65279;SDS011;51878;55.748;48.742;2023-04-15T00:06:06;0.98;;;0.98;;
65279;SDS011;51878;55.748;48.742;2023-04-15T00:11:09;1.10;;;0.90;;
65279;SDS011;51878;55.748;48.742;2023-04-15T00:16:11;1.90;;;0.90;;
65279;SDS011;51878;55.748;48.742;2023-04-15T00:21:13;1.42;;;1.05;;
65279;SDS011;51878;55.748;48.742;2023-04-15T00:26:15;1.08;;;0.98;;
65279;SDS011;51878;55.748;48.742;2023-04-15T00:31:17;4.95;;;1.23;;
65279;SDS011;51878;55.748;48.742;2023-04-15T00:36:19;4.72;;;1.40;;
65279;SDS011;51878;55.748;48.742;2023-04-15T00:41:22;2.33;;;1.10;;
65279;SDS011;51878;55.748;48.742;2023-04-15T00:46:24;1.13;;;1.05;;
65279;SDS011;51878;55.748;48.742;2023-04-15T00:51:29;0.95;;;0.90;;
65279;SDS011;51878;55.748;48.742;2023-04-15T00:56:34;2.75;;;1.33;;
65279;SDS011;51878;55.748;48.742;2023-04-15T01:01:38;1.92;;;1.20;;
65279;SDS011;51878;55.748;48.742;2023-04-15T01:06:41;1.02;;;0.90;;
65279;SDS011;51878;55.748;48.742;2023-04-15T01:11:43;1.08;;;0.82;;
65279;SDS011;51878;55.748;48.742;2023-04-15T01:16:46;1.38;;;1.00;;
65279;SDS011;51878;55.748;48.742;2023-04-15T01:21:48;1.90;;;1.10;;
65279;SDS011;51878;55.748;48.742;2023-04-15T01:26:50;0.90;;;0.90;;
65279;SDS011;51878;55.748;48.742;2023-04-15T01:31:53;1.88;;;1.20;;
65279;SDS011;51878;55.748;48.742;2023-04-15T01:37:15;0.95;;;0.93;;
65279;SDS011;51878;55.748;48.742;2023-04-15T01:42:17;3.13;;;1.65;;
65279;SDS011;51878;55.748;48.742;2023-04-15T01:47:21;2.08;;;1.20;;
65279;SDS011;51878;55.748;48.742;2023-04-15T01:52:24;1.52;;;0.90;;
65279;SDS011;51878;55.748;48.742;2023-04-15T01:57:27;1.00;;;0.82;;
65279;SDS011;51878;55.748;48.742;2023-04-15T02:02:31;1.27;;;1.20;;
65279;SDS011;51878;55.748;48.742;2023-04-15T02:07:35;1.35;;;1.15;;
65279;SDS011;51878;55.748;48.742;2023-04-15T02:12:39;1.40;;;1.25;;
65279;SDS011;51878;55.748;48.742;2023-04-15T02:17:42;3.03;;;1.20;;
65279;SDS011;51878;55.748;48.742;2023-04-15T02:22:48;3.00;;;1.17;;
65279;SDS011;51878;55.748;48.742;2023-04-15T02:27:51;3.10;;;1.05;;
65279;SDS011;51878;55.748;48.742;2023-04-15T02:32:55;0.98;;;0.98;;
65279;SDS011;51878;55.748;48.742;2023-04-15T02:37:59;1.25;;;1.15;;
65279;SDS011;51878;55.748;48.742;2023-04-15T02:43:02;1.00;;;0.90;;
65279;SDS011;51878;55.748;48.742;2023-04-15T02:48:07;1.60;;;1.10;;
65279;SDS011;51878;55.748;48.742;2023-04-15T02:53:10;1.33;;;1.00;;
65279;SDS011;51878;55.748;48.742;2023-04-15T02:58:15;1.77;;;0.98;;
65279;SDS011;51878;55.748;48.742;2023-04-15T03:03:18;1.50;;;1.20;;
65279;SDS011;51878;55.748;48.742;2023-04-15T03:08:22;2.13;;;1.00;;
65279;SDS011;51878;55.748;48.742;2023-04-15T03:13:26;1.08;;;1.02;;
65279;SDS011;51878;55.748;48.742;2023-04-15T03:18:29;1.48;;;1.02;;
65279;SDS011;51878;55.748;48.742;2023-04-15T03:23:33;3.58;;;1.45;;
65279;SDS011;51878;55.748;48.742;2023-04-15T03:28:36;1.15;;;1.05;;
65279;SDS011;51878;55.748;48.742;2023-04-15T03:33:39;4.75;;;1.50;;
65279;SDS011;51878;55.748;48.742;2023-04-15T03:38:43;1.58;;;1.30;;
65279;SDS011;51878;55.748;48.742;2023-04-15T03:43:46;3.15;;;1.75;;
65279;SDS011;51878;55.748;48.742;2023-04-15T03:48:49;1.58;;;1.30;;
65279;SDS011;51878;55.748;48.742;2023-04-15T03:53:53;3.53;;;1.33;;
65279;SDS011;51878;55.748;48.742;2023-04-15T03:58:56;1.40;;;1.13;;
65279;SDS011;51878;55.748;48.742;2023-04-15T04:04:00;1.50;;;1.10;;
65279;SDS011;51878;55.748;48.742;2023-04-15T04:09:04;1.20;;;1.10;;
65279;SDS011;51878;55.748;48.742;2023-04-15T04:14:07;0.93;;;0.93;;
65279;SDS011;51878;55.748;48.742;2023-04-15T04:19:10;1.45;;;1.15;;
65279;SDS011;51878;55.748;48.742;2023-04-15T04:24:14;2.13;;;1.25;;
65279;SDS011;51878;55.748;48.742;2023-04-15T04:29:18;4.05;;;1.10;;
65279;SDS011;51878;55.748;48.742;2023-04-15T04:34:21;1.75;;;1.10;;
65279;SDS011;51878;55.748;48.742;2023-04-15T04:39:28;1.75;;;1.33;;
65279;SDS011;51878;55.748;48.742;2023-04-15T04:44:31;1.27;;;1.00;;
65279;SDS011;51878;55.748;48.742;2023-04-15T04:49:37;1.65;;;1.20;;
65279;SDS011;51878;55.748;48.742;2023-04-15T04:54:41;9.40;;;1.50;;
65279;SDS011;51878;55.748;48.742;2023-04-15T04:59:44;5.22;;;1.48;;
65279;SDS011;51878;55.748;48.742;2023-04-15T05:04:48;14.85;;;1.65;;
65279;SDS011;51878;55.748;48.742;2023-04-15T05:09:53;1.20;;;1.10;;
65279;SDS011;51878;55.748;48.742;2023-04-15T05:14:57;1.15;;;1.05;;
65279;SDS011;51878;55.748;48.742;2023-04-15T05:20:00;1.70;;;1.25;;
65279;SDS011;51878;55.748;48.742;2023-04-15T05:25:07;1.88;;;1.33;;
65279;SDS011;51878;55.748;48.742;2023-04-15T05:30:11;1.98;;;1.27;;
65279;SDS011;51878;55.748;48.742;2023-04-15T05:35:15;0.88;;;0.88;;
65279;SDS011;51878;55.748;48.742;2023-04-15T05:40:19;1.20;;;1.10;;
65279;SDS011;51878;55.748;48.742;2023-04-15T05:45:22;3.25;;;1.35;;
65279;SDS011;51878;55.748;48.742;2023-04-15T05:50:26;2.05;;;1.15;;
65279;SDS011;51878;55.748;48.742;2023-04-15T05:55:29;3.25;;;1.48;;
65279;SDS011;51878;55.748;48.742;2023-04-15T06:00:33;4.40;;;1.50;;
65279;SDS011;51878;55.748;48.742;2023-04-15T06:05:36;2.17;;;1.30;;
65279;SDS011;51878;55.748;48.742;2023-04-15T06:10:40;1.40;;;1.02;;
65279;SDS011;51878;55.748;48.742;2023-04-15T06:15:43;11.95;;;1.55;;
65279;SDS011;51878;55.748;48.742;2023-04-15T06:20:47;2.45;;;1.70;;
65279;SDS011;51878;55.748;48.742;2023-04-15T06:25:50;4.03;;;1.80;;
65279;SDS011;51878;55.748;48.742;2023-04-15T06:30:54;2.58;;;1.27;;
65279;SDS011;51878;55.748;48.742;2023-04-15T06:35:58;2.28;;;1.17;;
65279;SDS011;51878;55.748;48.742;2023-04-15T06:41:02;2.28;;;1.08;;
65279;SDS011;51878;55.748;48.742;2023-04-15T06:46:06;5.22;;;1.13;;
65279;SDS011;51878;55.748;48.742;2023-04-15T06:51:09;1.95;;;1.27;;
65279;SDS011;51878;55.748;48.742;2023-04-15T06:56:12;2.65;;;1.10;;
65279;SDS011;51878;55.748;48.742;2023-04-15T07:01:19;5.28;;;1.30;;
65279;SDS011;51878;55.748;48.742;2023-04-15T07:06:23;2.35;;;1.23;;
65279;SDS011;51878;55.748;48.742;2023-04-15T07:11:27;4.60;;;1.90;;
65279;SDS011;51878;55.748;48.742;2023-04-15T07:16:34;2.60;;;1.40;;
65279;SDS011;51878;55.748;48.742;2023-04-15T07:21:37;2.25;;;1.40;;
65279;SDS011;51878;55.748;48.742;2023-04-15T07:26:43;2.42;;;1.30;;
65279;SDS011;51878;55.748;48.742;2023-04-15T07:31:47;5.72;;;1.45;;
65279;SDS011;51878;55.748;48.742;2023-04-15T07:36:50;2.20;;;1.20;;
65279;SDS011;51878;55.748;48.742;2023-04-15T07:41:54;1.92;;;1.30;;
65279;SDS011;51878;55.748;48.742;2023-04-15T07:46:58;1.20;;;1.10;;
65279;SDS011;51878;55.748;48.742;2023-04-15T07:52:03;1.58;;;1.27;;
65279;SDS011;51878;55.748;48.742;2023-04-15T07:57:07;3.70;;;1.65;;
65279;SDS011;51878;55.748;48.742;2023-04-15T08:02:10;1.50;;;1.30;;
65279;SDS011;51878;55.748;48.742;2023-04-15T08:07:14;1.33;;;1.05;;
65279;SDS011;51878;55.748;48.742;2023-04-15T08:12:18;4.50;;;1.65;;
65279;SDS011;51878;55.748;48.742;2023-04-15T08:17:21;3.45;;;1.27;;
65279;SDS011;51878;55.748;48.742;2023-04-15T08:22:24;2.95;;;1.08;;
65279;SDS011;51878;55.748;48.742;2023-04-15T08:27:28;2.25;;;1.40;;
65279;SDS011;51878;55.748;48.742;2023-04-15T08:32:31;1.52;;;1.42;;
65279;SDS011;51878;55.748;48.742;2023-04-15T08:37:35;4.22;;;1.33;;
65279;SDS011;51878;55.748;48.742;2023-04-15T08:42:40;3.65;;;1.45;;
65279;SDS011;51878;55.748;48.742;2023-04-15T08:47:46;1.90;;;1.05;;
65279;SDS011;51878;55.748;48.742;2023-04-15T08:52:58;5.38;;;1.52;;
65279;SDS011;51878;55.748;48.742;2023-04-15T08:58:02;6.40;;;1.55;;
65279;SDS011;51878;55.748;48.742;2023-04-15T09:03:06;6.00;;;1.50;;
65279;SDS011;51878;55.748;48.742;2023-04-15T09:08:11;2.70;;;1.20;;
65279;SDS011;51878;55.748;48.742;2023-04-15T09:13:15;2.72;;;1.40;;
65279;SDS011;51878;55.748;48.742;2023-04-15T09:18:28;3.85;;;1.30;;
65279;SDS011;51878;55.748;48.742;2023-04-15T09:23:33;13.20;;;1.50;;
65279;SDS011;51878;55.748;48.742;2023-04-15T09:28:41;2.53;;;1.30;;
65279;SDS011;51878;55.748;48.742;2023-04-15T09:33:54;4.15;;;1.25;;
65279;SDS011;51878;55.748;48.742;2023-04-15T09:39:01;1.92;;;1.20;;
65279;SDS011;51878;55.748;48.742;2023-04-15T09:44:04;4.97;;;1.30;;
65279;SDS011;51878;55.748;48.742;2023-04-15T09:49:08;2.05;;;1.20;;
65279;SDS011;51878;55.748;48.742;2023-04-15T09:54:12;2.13;;;1.55;;
65279;SDS011;51878;55.748;48.742;2023-04-15T09:59:22;2.88;;;2.08;;
65279;SDS011;51878;55.748;48.742;2023-04-15T10:04:27;1.52;;;1.30;;
65279;SDS011;51878;55.748;48.742;2023-04-15T10:09:31;2.67;;;1.45;;
65279;SDS011;51878;55.748;48.742;2023-04-15T10:14:37;3.90;;;1.52;;
65279;SDS011;51878;55.748;48.742;2023-04-15T10:19:42;7.45;;;1.50;;
65279;SDS011;51878;55.748;48.742;2023-04-15T10:44:36;3.03;;;1.50;;
65279;SDS011;51878;55.748;48.742;2023-04-15T10:49:45;2.85;;;1.23;;
65279;SDS011;51878;55.748;48.742;2023-04-15T10:55:01;3.47;;;1.23;;
65279;SDS011;51878;55.748;48.742;2023-04-15T11:00:13;1.67;;;1.20;;
65279;SDS011;51878;55.748;48.742;2023-04-15T11:05:18;3.22;;;1.45;;
65279;SDS011;51878;55.748;48.742;2023-04-15T11:15:44;1.55;;;1.20;;
65279;SDS011;51878;55.748;48.742;2023-04-15T11:20:52;3.28;;;1.30;;
65279;SDS011;51878;55.748;48.742;2023-04-15T11:25:59;5.65;;;1.83;;
65279;SDS011;51878;55.748;48.742;2023-04-15T11:31:11;2.00;;;1.50;;
65279;SDS011;51878;55.748;48.742;2023-04-15T11:36:25;2.08;;;1.45;;
65279;SDS011;51878;55.748;48.742;2023-04-15T11:41:29;21.73;;;4.10;;
65279;SDS011;51878;55.748;48.742;2023-04-15T11:46:35;1.80;;;1.40;;
65279;SDS011;51878;55.748;48.742;2023-04-15T11:51:38;6.47;;;1.48;;
65279;SDS011;51878;55.748;48.742;2023-04-15T11:56:41;1.73;;;1.50;;
65279;SDS011;51878;55.748;48.742;2023-04-15T12:06:53;2.25;;;1.20;;
65279;SDS011;51878;55.748;48.742;2023-04-15T12:11:56;1.95;;;1.27;;
65279;SDS011;51878;55.748;48.742;2023-04-15T12:17:00;2.70;;;1.25;;
65279;SDS011;51878;55.748;48.742;2023-04-15T12:22:09;3.95;;;1.33;;
65279;SDS011;51878;55.748;48.742;2023-04-15T12:27:15;3.17;;;1.30;;
65279;SDS011;51878;55.748;48.742;2023-04-15T12:32:18;2.95;;;1.90;;
65279;SDS011;51878;55.748;48.742;2023-04-15T12:37:21;6.95;;;1.70;;
65279;SDS011;51878;55.748;48.742;2023-04-15T12:42:23;11.93;;;2.30;;
65279;SDS011;51878;55.748;48.742;2023-04-15T12:47:25;5.72;;;1.30;;
65279;SDS011;51878;55.748;48.742;2023-04-15T12:52:28;2.47;;;1.67;;
65279;SDS011;51878;55.748;48.742;2023-04-15T12:57:30;3.10;;;1.65;;
65279;SDS011;51878;55.748;48.742;2023-04-15T13:02:32;8.00;;;1.65;;
65279;SDS011;51878;55.748;48.742;2023-04-15T13:07:36;8.75;;;1.70;;
65279;SDS011;51878;55.748;48.742;2023-04-15T13:12:42;3.72;;;1.40;;
65279;SDS011;51878;55.748;48.742;2023-04-15T13:17:47;1.83;;;1.58;;
65279;SDS011;51878;55.748;48.742;2023-04-15T13:22:50;1.52;;;1.42;;
65279;SDS011;51878;55.748;48.742;2023-04-15T13:27:53;6.80;;;1.60;;
65279;SDS011;51878;55.748;48.742;2023-04-15T13:32:55;2.55;;;1.52;;
65279;SDS011;51878;55.748;48.742;2023-04-15T13:37:57;4.30;;;1.30;;
65279;SDS011;51878;55.748;48.742;2023-04-15T13:42:59;4.45;;;1.60;;
65279;SDS011;51878;55.748;48.742;2023-04-15T13:48:02;2.08;;;1.50;;
65279;SDS011;51878;55.748;48.742;2023-04-15T13:53:06;6.80;;;1.40;;
65279;SDS011;51878;55.748;48.742;2023-04-15T13:58:08;4.60;;;1.67;;
65279;SDS011;51878;55.748;48.742;2023-04-15T14:03:14;3.58;;;1.50;;
65279;SDS011;51878;55.748;48.742;2023-04-15T14:08:16;9.07;;;1.45;;
65279;SDS011;51878;55.748;48.742;2023-04-15T14:13:18;1.38;;;1.25;;
65279;SDS011;51878;55.748;48.742;2023-04-15T14:18:20;4.40;;;1.40;;
65279;SDS011;51878;55.748;48.742;2023-04-15T14:23:23;3.05;;;1.60;;
65279;SDS011;51878;55.748;48.742;2023-04-15T14:28:25;2.78;;;1.40;;
65279;SDS011;51878;55.748;48.742;2023-04-15T14:33:30;1.48;;;1.20;;
65279;SDS011;51878;55.748;48.742;2023-04-15T14:38:33;2.22;;;1.40;;
65279;SDS011;51878;55.748;48.742;2023-04-15T14:43:39;3.67;;;1.65;;
65279;SDS011;51878;55.748;48.742;2023-04-15T14:48:41;2.30;;;1.40;;
65279;SDS011;51878;55.748;48.742;2023-04-15T14:53:44;2.92;;;1.45;;
65279;SDS011;51878;55.748;48.742;2023-04-15T14:58:46;12.07;;;2.10;;
65279;SDS011;51878;55.748;48.742;2023-04-15T15:03:49;3.63;;;1.33;;
65279;SDS011;51878;55.748;48.742;2023-04-15T15:08:52;4.13;;;1.80;;
65279;SDS011;51878;55.748;48.742;2023-04-15T15:13:54;4.55;;;1.60;;
65279;SDS011;51878;55.748;48.742;2023-04-15T15:18:57;4.68;;;1.70;;
65279;SDS011;51878;55.748;48.742;2023-04-15T15:23:59;4.93;;;1.70;;
65279;SDS011;51878;55.748;48.742;2023-04-15T15:29:01;3.22;;;1.90;;
65279;SDS011;51878;55.748;48.742;2023-04-15T15:34:04;2.33;;;1.60;;
65279;SDS011;51878;55.748;48.742;2023-04-15T15:39:07;4.22;;;1.73;;
65279;SDS011;51878;55.748;48.742;2023-04-15T15:44:18;4.20;;;1.92;;
65279;SDS011;51878;55.748;48.742;2023-04-15T15:49:21;5.18;;;1.95;;
65279;SDS011;51878;55.748;48.742;2023-04-15T15:54:34;4.97;;;2.05;;
65279;SDS011;51878;55.748;48.742;2023-04-15T15:59:38;3.97;;;2.00;;
65279;SDS011;51878;55.748;48.742;2023-04-15T16:04:41;5.35;;;1.98;;
65279;SDS011;51878;55.748;48.742;2023-04-15T16:09:44;4.00;;;2.30;;
65279;SDS011;51878;55.748;48.742;2023-04-15T16:14:46;6.65;;;2.10;;
65279;SDS011;51878;55.748;48.742;2023-04-15T16:19:48;3.55;;;1.90;;
65279;SDS011;51878;55.748;48.742;2023-04-15T16:25:00;3.95;;;1.90;;
65279;SDS011;51878;55.748;48.742;2023-04-15T16:30:04;3.03;;;2.22;;
65279;SDS011;51878;55.748;48.742;2023-04-15T16:35:06;5.93;;;2.30;;
65279;SDS011;51878;55.748;48.742;2023-04-15T16:40:09;4.03;;;2.30;;
65279;SDS011;51878;55.748;48.742;2023-04-15T16:45:12;4.95;;;2.28;;
65279;SDS011;51878;55.748;48.742;2023-04-15T16:50:14;5.55;;;2.15;;
65279;SDS011;51878;55.748;48.742;2023-04-15T16:55:17;3.97;;;1.75;;
65279;SDS011;51878;55.748;48.742;2023-04-15T17:00:20;12.70;;;2.30;;
65279;SDS011;51878;55.748;48.742;2023-04-15T17:05:22;2.78;;;1.70;;
65279;SDS011;51878;55.748;48.742;2023-04-15T17:10:24;6.60;;;2.60;;
65279;SDS011;51878;55.748;48.742;2023-04-15T17:15:27;4.45;;;2.28;;
65279;SDS011;51878;55.748;48.742;2023-04-15T17:20:46;7.38;;;2.60;;
65279;SDS011;51878;55.748;48.742;2023-04-15T17:25:49;4.32;;;1.95;;
65279;SDS011;51878;55.748;48.742;2023-04-15T17:30:53;3.42;;;1.83;;
65279;SDS011;51878;55.748;48.742;2023-04-15T17:36:16;5.90;;;2.67;;
65279;SDS011;51878;55.748;48.742;2023-04-15T17:41:38;6.28;;;2.30;;
65279;SDS011;51878;55.748;48.742;2023-04-15T17:47:00;3.78;;;2.22;;
65279;SDS011;51878;55.748;48.742;2023-04-15T17:52:23;6.18;;;2.40;;
65279;SDS011;51878;55.748;48.742;2023-04-15T17:57:45;9.02;;;2.70;;
65279;SDS011;51878;55.748;48.742;2023-04-15T18:03:07;5.75;;;2.90;;
65279;SDS011;51878;55.748;48.742;2023-04-15T18:08:32;6.20;;;2.78;;
65279;SDS011;51878;55.748;48.742;2023-04-15T18:13:54;2.83;;;2.03;;
65279;SDS011;51878;55.748;48.742;2023-04-15T18:19:16;2.88;;;1.50;;
65279;SDS011;51878;55.748;48.742;2023-04-15T18:24:18;6.70;;;2.00;;
65279;SDS011;51878;55.748;48.742;2023-04-15T18:29:20;12.85;;;1.77;;
65279;SDS011;51878;55.748;48.742;2023-04-15T18:34:25;2.33;;;1.60;;
65279;SDS011;51878;55.748;48.742;2023-04-15T18:39:27;1.95;;;1.40;;
65279;SDS011;51878;55.748;48.742;2023-04-15T18:44:32;2.25;;;1.50;;
65279;SDS011;51878;55.748;48.742;2023-04-15T18:49:37;1.48;;;1.13;;
65279;SDS011;51878;55.748;48.742;2023-04-15T18:54:39;3.90;;;1.58;;
65279;SDS011;51878;55.748;48.742;2023-04-15T18:59:41;2.55;;;1.58;;
65279;SDS011;51878;55.748;48.742;2023-04-15T19:04:43;3.95;;;1.50;;
65279;SDS011;51878;55.748;48.742;2023-04-15T19:09:46;3.90;;;1.52;;
65279;SDS011;51878;55.748;48.742;2023-04-15T19:14:49;2.83;;;1.65;;
65279;SDS011;51878;55.748;48.742;2023-04-15T19:20:06;2.67;;;1.73;;
65279;SDS011;51878;55.748;48.742;2023-04-15T19:25:09;2.20;;;1.50;;
65279;SDS011;51878;55.748;48.742;2023-04-15T19:30:11;2.65;;;1.40;;
65279;SDS011;51878;55.748;48.742;2023-04-15T19:35:14;3.35;;;1.50;;
65279;SDS011;51878;55.748;48.742;2023-04-15T19:40:19;2.53;;;1.33;;
65279;SDS011;51878;55.748;48.742;2023-04-15T19:45:27;3.17;;;1.40;;
65279;SDS011;51878;55.748;48.742;2023-04-15T19:50:34;1.48;;;1.20;;
65279;SDS011;51878;55.748;48.742;2023-04-15T19:56:06;2.03;;;1.45;;
65279;SDS011;51878;55.748;48.742;2023-04-15T20:01:48;5.28;;;1.50;;
65279;SDS011;51878;55.748;48.742;2023-04-15T20:06:51;2.05;;;1.67;;
65279;SDS011;51878;55.748;48.742;2023-04-15T20:11:53;3.08;;;1.45;;
65279;SDS011;51878;55.748;48.742;2023-04-15T20:17:06;2.42;;;1.70;;
65279;SDS011;51878;55.748;48.742;2023-04-15T20:22:09;3.25;;;1.58;;
65279;SDS011;51878;55.748;48.742;2023-04-15T20:27:12;2.00;;;1.60;;
65279;SDS011;51878;55.748;48.742;2023-04-15T20:32:15;2.40;;;1.83;;
65279;SDS011;51878;55.748;48.742;2023-04-15T20:37:18;2.88;;;1.95;;
65279;SDS011;51878;55.748;48.742;2023-04-15T20:42:20;2.78;;;1.90;;
65279;SDS011;51878;55.748;48.742;2023-04-15T20:47:22;4.03;;;1.83;;
65279;SDS011;51878;55.748;48.742;2023-04-15T20:52:24;3.35;;;1.92;;
65279;SDS011;51878;55.748;48.742;2023-04-15T20:57:27;3.05;;;1.88;;
65279;SDS011;51878;55.748;48.742;2023-04-15T21:02:33;5.15;;;1.83;;
65279;SDS011;51878;55.748;48.742;2023-04-15T21:07:36;4.78;;;1.83;;
65279;SDS011;51878;55.748;48.742;2023-04-15T21:12:38;2.92;;;1.80;;
65279;SDS011;51878;55.748;48.742;2023-04-15T21:17:41;4.65;;;1.98;;
65279;SDS011;51878;55.748;48.742;2023-04-15T21:22:43;3.50;;;1.90;;
65279;SDS011;51878;55.748;48.742;2023-04-15T21:27:46;2.28;;;1.60;;
65279;SDS011;51878;55.748;48.742;2023-04-15T21:32:48;2.90;;;1.95;;
65279;SDS011;51878;55.748;48.742;2023-04-15T21:37:50;6.07;;;2.15;;
65279;SDS011;51878;55.748;48.742;2023-04-15T21:42:52;3.65;;;1.95;;
65279;SDS011;51878;55.748;48.742;2023-04-15T21:47:54;6.15;;;2.30;;
65279;SDS011;51878;55.748;48.742;2023-04-15T21:53:00;5.28;;;2.50;;
65279;SDS011;51878;55.748;48.742;2023-04-15T21:58:02;6.70;;;2.80;;
65279;SDS011;51878;55.748;48.742;2023-04-15T22:03:04;4.90;;;3.05;;
65279;SDS011;51878;55.748;48.742;2023-04-15T22:08:06;8.68;;;3.83;;
65279;SDS011;51878;55.748;48.742;2023-04-15T22:13:09;6.38;;;3.38;;
65279;SDS011;51878;55.748;48.742;2023-04-15T22:18:12;6.50;;;3.80;;
65279;SDS011;51878;55.748;48.742;2023-04-15T22:23:14;8.82;;;4.43;;
65279;SDS011;51878;55.748;48.742;2023-04-15T22:28:18;9.73;;;3.78;;
65279;SDS011;51878;55.748;48.742;2023-04-15T22:33:20;8.68;;;4.07;;
65279;SDS011;51878;55.748;48.742;2023-04-15T22:38:23;7.53;;;3.63;;
65279;SDS011;51878;55.748;48.742;2023-04-15T22:43:25;9.35;;;3.60;;
65279;SDS011;51878;55.748;48.742;2023-04-15T22:48:28;5.55;;;3.63;;
65279;SDS011;51878;55.748;48.742;2023-04-15T22:53:30;7.45;;;3.20;;
65279;SDS011;51878;55.748;48.742;2023-04-15T22:58:32;7.68;;;3.05;;
65279;SDS011;51878;55.748;48.742;2023-04-15T23:03:34;7.40;;;2.60;;
65279;SDS011;51878;55.748;48.742;2023-04-15T23:08:54;3.47;;;2.17;;
65279;SDS011;51878;55.748;48.742;2023-04-15T23:13:56;5.35;;;2.28;;
65279;SDS011;51878;55.748;48.742;2023-04-15T23:18:58;6.60;;;2.17;;
65279;SDS011;51878;55.748;48.742;2023-04-15T23:24:00;5.00;;;2.15;;
65279;SDS011;51878;55.748;48.742;2023-04-15T23:29:02;4.88;;;2.42;;
65279;SDS011;51878;55.748;48.742;2023-04-15T23:34:04;4.75;;;2.30;;
65279;SDS011;51878;55.748;48.742;2023-04-15T23:39:07;4.75;;;2.50;;
65279;SDS011;51878;55.748;48.742;2023-04-15T23:44:09;5.47;;;2.17;;
65279;SDS011;51878;55.748;48.742;2023-04-15T23:49:11;3.13;;;2.15;;
65279;SDS011;51878;55.748;48.742;2023-04-15T23:54:13;5.70;;;1.95;;
65279;SDS011;51878;55.748;48.742;2023-04-15T23:59:16;4.97;;;2.35;;
